LICA/SUF METAR and TAF weather

Enter ICAO airport designator
Station Type Date Time Source
LICA METAR 2022/06/30 02:20 UTC NOAA

LICA 300220Z AUTO VRB01KT 9999 FEW020/// 21/18 Q1012


Station Type Date Time Source
LICA Decoded METAR 2022/06/30 02:20 UTC NOAA

Lamezia Terme, Italy (LICA) 38-54N 016-15E
Jun 29, 2022 - 10:20 PM EDT / 2022.06.30 0220 UTC
Wind: Variable at 1 MPH (1 KT):0
Visibility: greater than 7 mile(s):0
Sky conditions: mostly clear
Temperature: 69 F (21 C)
Dew Point: 64 F (18 C)
Relative Humidity: 82%
Pressure (altimeter): 29.88 in. Hg (1012 hPa)
ob: LICA 300220Z AUTO VRB01KT 9999 FEW020/// 21/18 Q1012
cycle: 2

Station Type Date Time Source
LICA TAF 2022/06/29 18:21 UTC NOAA

TAF LICA 291700Z 2918/3018 26010KT 9999 FEW030
BECMG 2918/2920 VRB05KT
BECMG 3008/3010 28012KT

Example: see airport list